Sonrisa — WDH7488 — position and weather

sailwx.info

Track history (hours):
 
Tides and Currents Weather Stations Pressure Air Temp Water Temp Dewpoint Dewpoint Depression Visibility Wind Speed Wind Dir Waves Ship Positions

Sonrisa

Owner: Torok, Gregory S, Redwood City, CA. More information available from US FCC via Universal Licensing System and Coast Guard Vessel Documentation Center.

Last reported at 2018-Feb-19 01:27 UTC. Time now 2018-Feb-19 01:44 UTC.
Position N 37°50' W 122°19'.

Length 13 m.

Type: Sailing vessel. MMSI: 367648650.

Date/timePositionNaut miles runAvg speedWind from/ knotsBaromVisibWave heightAir tempDewpointWater temp
2018-Feb-19 01:27N 37°50' W 122°19'0 0.0
2018-Feb-19 01:00N 37°50' W 122°19'0 0.0
2018-Feb-19 00:27N 37°50' W 122°19'0 0.0
2018-Feb-18 23:57N 37°50' W 122°19'0 0.0
2018-Feb-18 23:30N 37°50' W 122°19'0 0.0
2018-Feb-18 23:00N 37°50' W 122°19'0 0.0
2018-Feb-18 22:24N 37°50' W 122°19'1 1.5
2018-Feb-18 21:57N 37°51' W 122°19'3 5.6
2018-Feb-18 21:30N 37°51' W 122°23'3 4.9
2018-Feb-18 20:59N 37°52' W 122°25'0 0.6
2018-Feb-18 20:26N 37°52' W 122°26'0 0.0
2018-Feb-18 20:00N 37°52' W 122°26'0 0.0
2018-Feb-18 19:30N 37°52' W 122°26'0 0.0
2018-Feb-18 19:01N 37°52' W 122°26'0 0.0
2018-Feb-18 18:28N 37°52' W 122°26'0 0.1
2018-Feb-18 17:58N 37°52' W 122°26'0 0.0
2018-Feb-18 17:28N 37°52' W 122°26'0 0.1
2018-Feb-18 16:58N 37°52' W 122°26'0 0.1
2018-Feb-18 16:28N 37°52' W 122°26'0 0.1
2018-Feb-18 15:58N 37°52' W 122°26'0 0.0
2018-Feb-18 15:28N 37°52' W 122°26'0 0.0
2018-Feb-18 14:58N 37°52' W 122°26'0 0.1
2018-Feb-18 14:28N 37°52' W 122°26'0 0.0
2018-Feb-18 13:58N 37°52' W 122°26'0 0.1
2018-Feb-18 13:28N 37°52' W 122°26'0 0.0
2018-Feb-18 12:58N 37°52' W 122°26'0 0.0
2018-Feb-18 12:30N 37°52' W 122°26'0 0.0
2018-Feb-18 12:00N 37°52' W 122°26'0 0.0
2018-Feb-18 11:30N 37°52' W 122°26'0 0.0
2018-Feb-18 11:00N 37°52' W 122°26'0 0.0
2018-Feb-18 10:30N 37°52' W 122°26'0 0.0
2018-Feb-18 10:00N 37°52' W 122°26'0 0.1
2018-Feb-18 09:30N 37°52' W 122°26'0 0.1
2018-Feb-18 09:00N 37°52' W 122°26'0 0.0
2018-Feb-18 08:27N 37°52' W 122°26'0 0.0
2018-Feb-18 08:00N 37°52' W 122°26'0 0.0
2018-Feb-18 07:30N 37°52' W 122°26'0 0.0
2018-Feb-18 07:00N 37°52' W 122°26'0 0.0
2018-Feb-18 06:30N 37°52' W 122°26'0 0.0
2018-Feb-18 06:00N 37°52' W 122°26'0 0.0
2018-Feb-18 05:30N 37°52' W 122°26'0 0.0
2018-Feb-18 05:00N 37°52' W 122°26'0 0.0
2018-Feb-18 04:30N 37°52' W 122°26'0 0.1
2018-Feb-18 04:00N 37°52' W 122°26'0 0.1
2018-Feb-18 03:30N 37°52' W 122°26'0 0.0
2018-Feb-18 03:00N 37°52' W 122°26'0 0.1
2018-Feb-18 02:30N 37°52' W 122°26'0 0.1
2018-Feb-18 02:00N 37°52' W 122°25'2 3.8
2018-Feb-18 01:30N 37°51' W 122°23'2 4.3
2018-Feb-18 01:00N 37°51' W 122°21'2 0.1
2018-Feb-16 14:57N 37°50' W 122°19'0 0.0
2018-Feb-16 14:30N 37°50' W 122°19'0 0.0
2018-Feb-16 14:00N 37°50' W 122°19'0 0.0
2018-Feb-16 13:30N 37°50' W 122°19'0 0.0
2018-Feb-16 12:57N 37°50' W 122°19'0 0.0
2018-Feb-16 12:30N 37°50' W 122°19'0 0.0
2018-Feb-16 12:00N 37°50' W 122°19'0 0.0
2018-Feb-16 11:30N 37°50' W 122°19'0 0.0
2018-Feb-16 11:00N 37°50' W 122°19'0 0.0
2018-Feb-16 10:30N 37°50' W 122°19'0 0.0
2018-Feb-16 09:57N 37°50' W 122°19'0 0.0
2018-Feb-16 09:30N 37°50' W 122°19'0 0.0
2018-Feb-16 08:57N 37°50' W 122°19'0 0.0
2018-Feb-16 08:30N 37°50' W 122°19'0 0.0
2018-Feb-16 08:00N 37°50' W 122°19'0 0.0
2018-Feb-16 07:29N 37°50' W 122°19'0 0.0
2018-Feb-16 06:59N 37°50' W 122°19'0 0.0
2018-Feb-16 06:29N 37°50' W 122°19'0 0.0
2018-Feb-16 05:59N 37°50' W 122°19'0 0.0
2018-Feb-16 05:29N 37°50' W 122°19'0 0.0
2018-Feb-16 04:59N 37°50' W 122°19'0 0.0
2018-Feb-16 04:29N 37°50' W 122°19'0 0.0
2018-Feb-16 03:59N 37°50' W 122°19'0 0.0
2018-Feb-16 03:29N 37°50' W 122°19'0 0.0
2018-Feb-16 02:56N 37°50' W 122°19'0 0.0
2018-Feb-16 02:29N 37°50' W 122°19'0 0.0
2018-Feb-16 01:59N 37°50' W 122°19'0 0.0
2018-Feb-16 01:26N 37°50' W 122°19'0 0.0
2018-Feb-16 00:59N 37°50' W 122°19'0 0.0
2018-Feb-16 00:29N 37°50' W 122°19'  
Track history (hours):
 
Tides and Currents Weather Stations Pressure Air Temp Water Temp Dewpoint Dewpoint Depression Visibility Wind Speed Wind Dir Waves Ship Positions

Sonrisa

Owner: Torok, Gregory S, Redwood City, CA. More information available from US FCC via Universal Licensing System and Coast Guard Vessel Documentation Center.

Last reported at 2018-Feb-19 01:27 UTC. Time now 2018-Feb-19 01:44 UTC.
Position N 37°50' W 122°19'.

Length 13 m.

Type: Sailing vessel. MMSI: 367648650.

Date/timePositionNaut miles runAvg speedWind from/ knotsBaromVisibWave heightAir tempDewpointWater temp
2018-Feb-19 01:27N 37°50' W 122°19'0 0.0
2018-Feb-19 01:00N 37°50' W 122°19'0 0.0
2018-Feb-19 00:27N 37°50' W 122°19'0 0.0
2018-Feb-18 23:57N 37°50' W 122°19'0 0.0
2018-Feb-18 23:30N 37°50' W 122°19'0 0.0
2018-Feb-18 23:00N 37°50' W 122°19'0 0.0
2018-Feb-18 22:24N 37°50' W 122°19'1 1.5
2018-Feb-18 21:57N 37°51' W 122°19'3 5.6
2018-Feb-18 21:30N 37°51' W 122°23'3 4.9
2018-Feb-18 20:59N 37°52' W 122°25'0 0.6
2018-Feb-18 20:26N 37°52' W 122°26'0 0.0
2018-Feb-18 20:00N 37°52' W 122°26'0 0.0
2018-Feb-18 19:30N 37°52' W 122°26'0 0.0
2018-Feb-18 19:01N 37°52' W 122°26'0 0.0
2018-Feb-18 18:28N 37°52' W 122°26'0 0.1
2018-Feb-18 17:58N 37°52' W 122°26'0 0.0
2018-Feb-18 17:28N 37°52' W 122°26'0 0.1
2018-Feb-18 16:58N 37°52' W 122°26'0 0.1
2018-Feb-18 16:28N 37°52' W 122°26'0 0.1
2018-Feb-18 15:58N 37°52' W 122°26'0 0.0
2018-Feb-18 15:28N 37°52' W 122°26'0 0.0
2018-Feb-18 14:58N 37°52' W 122°26'0 0.1
2018-Feb-18 14:28N 37°52' W 122°26'0 0.0
2018-Feb-18 13:58N 37°52' W 122°26'0 0.1
2018-Feb-18 13:28N 37°52' W 122°26'0 0.0
2018-Feb-18 12:58N 37°52' W 122°26'0 0.0
2018-Feb-18 12:30N 37°52' W 122°26'0 0.0
2018-Feb-18 12:00N 37°52' W 122°26'0 0.0
2018-Feb-18 11:30N 37°52' W 122°26'0 0.0
2018-Feb-18 11:00N 37°52' W 122°26'0 0.0
2018-Feb-18 10:30N 37°52' W 122°26'0 0.0
2018-Feb-18 10:00N 37°52' W 122°26'0 0.1
2018-Feb-18 09:30N 37°52' W 122°26'0 0.1
2018-Feb-18 09:00N 37°52' W 122°26'0 0.0
2018-Feb-18 08:27N 37°52' W 122°26'0 0.0
2018-Feb-18 08:00N 37°52' W 122°26'0 0.0
2018-Feb-18 07:30N 37°52' W 122°26'0 0.0
2018-Feb-18 07:00N 37°52' W 122°26'0 0.0
2018-Feb-18 06:30N 37°52' W 122°26'0 0.0
2018-Feb-18 06:00N 37°52' W 122°26'0 0.0
2018-Feb-18 05:30N 37°52' W 122°26'0 0.0
2018-Feb-18 05:00N 37°52' W 122°26'0 0.0
2018-Feb-18 04:30N 37°52' W 122°26'0 0.1
2018-Feb-18 04:00N 37°52' W 122°26'0 0.1
2018-Feb-18 03:30N 37°52' W 122°26'0 0.0
2018-Feb-18 03:00N 37°52' W 122°26'0 0.1
2018-Feb-18 02:30N 37°52' W 122°26'0 0.1
2018-Feb-18 02:00N 37°52' W 122°25'2 3.8
2018-Feb-18 01:30N 37°51' W 122°23'2 4.3
2018-Feb-18 01:00N 37°51' W 122°21'2 0.1
2018-Feb-16 14:57N 37°50' W 122°19'0 0.0
2018-Feb-16 14:30N 37°50' W 122°19'0 0.0
2018-Feb-16 14:00N 37°50' W 122°19'0 0.0
2018-Feb-16 13:30N 37°50' W 122°19'0 0.0
2018-Feb-16 12:57N 37°50' W 122°19'0 0.0
2018-Feb-16 12:30N 37°50' W 122°19'0 0.0
2018-Feb-16 12:00N 37°50' W 122°19'0 0.0
2018-Feb-16 11:30N 37°50' W 122°19'0 0.0
2018-Feb-16 11:00N 37°50' W 122°19'0 0.0
2018-Feb-16 10:30N 37°50' W 122°19'0 0.0
2018-Feb-16 09:57N 37°50' W 122°19'0 0.0
2018-Feb-16 09:30N 37°50' W 122°19'0 0.0
2018-Feb-16 08:57N 37°50' W 122°19'0 0.0
2018-Feb-16 08:30N 37°50' W 122°19'0 0.0
2018-Feb-16 08:00N 37°50' W 122°19'0 0.0
2018-Feb-16 07:29N 37°50' W 122°19'0 0.0
2018-Feb-16 06:59N 37°50' W 122°19'0 0.0
2018-Feb-16 06:29N 37°50' W 122°19'0 0.0
2018-Feb-16 05:59N 37°50' W 122°19'0 0.0
2018-Feb-16 05:29N 37°50' W 122°19'0 0.0
2018-Feb-16 04:59N 37°50' W 122°19'0 0.0
2018-Feb-16 04:29N 37°50' W 122°19'0 0.0
2018-Feb-16 03:59N 37°50' W 122°19'0 0.0
2018-Feb-16 03:29N 37°50' W 122°19'0 0.0
2018-Feb-16 02:56N 37°50' W 122°19'0 0.0
2018-Feb-16 02:29N 37°50' W 122°19'0 0.0
2018-Feb-16 01:59N 37°50' W 122°19'0 0.0
2018-Feb-16 01:26N 37°50' W 122°19'0 0.0
2018-Feb-16 00:59N 37°50' W 122°19'0 0.0
2018-Feb-16 00:29N 37°50' W 122°19'  

Dump ship's entire track history